Ken Boothe Sr — WDG3360 — position and weather

sailwx.info

Track history (hours):
 
Tides and Currents Weather Stations Pressure Air Temp Water Temp Dewpoint Dewpoint Depression Visibility Wind Speed Wind Dir Waves Ship Positions

Ken Boothe Sr

Owner: AMERICAN STEAMSHIP COMPANY, WILLIAMSVILLE, NY. More information available from US FCC via Universal Licensing System and Coast Guard Vessel Documentation Center.

Last reported at 2016-Jul-05 03:34 UTC. Time now 2016-Jul-23 13:12 UTC.
Position N 46°47' W 091°49'.
Warning: this ship's position is 18 days out of date.

Length 30 m; draft 8.6 m.

Type: Towing. MMSI: 367525230.

Date/timePositionNaut miles runAvg speedWind from/ knotsBaromVisibWave heightAir tempDewpointWater temp
2016-Jul-05 03:34N 46°47' W 091°49'10 9.9
2016-Jul-05 02:33N 46°42' W 092°02'3 2.5
2016-Jul-05 01:34N 46°44' W 092°05'0 0.0
2016-Jul-05 00:33N 46°44' W 092°05'0 0.0
2016-Jul-04 23:33N 46°44' W 092°05'0 0.0
2016-Jul-04 22:33N 46°44' W 092°05'0 0.0
2016-Jul-04 21:33N 46°44' W 092°05'0 0.0
2016-Jul-04 20:33N 46°44' W 092°05'0 0.0
2016-Jul-04 19:33N 46°44' W 092°05'0 0.0
2016-Jul-04 18:33N 46°44' W 092°05'1 0.6
2016-Jul-04 17:33N 46°45' W 092°05'5 4.9
2016-Jul-04 16:34N 46°48' W 092°01'1110.6
2016-Jul-04 15:34N 46°52' W 091°46'4310.5
2016-Jul-04 11:28N 47°08' W 090°47'910.5
2016-Jul-04 10:33N 47°11' W 090°34'1410.5
2016-Jul-04 09:15N 47°13' W 090°14'710.6
2016-Jul-04 08:33N 47°15' W 090°04'  
2016-Jun-26 09:33N 47°22' W 089°46'1110.9
2016-Jun-26 08:31N 47°19' W 090°02'1210.7
2016-Jun-26 07:23N 47°17' W 090°20'6310.7
2016-Jun-26 01:33N 46°54' W 091°45'1110.7
2016-Jun-26 00:33N 46°49' W 091°59'6 5.9
2016-Jun-25 23:33N 46°46' W 092°06'0 0.2
2016-Jun-25 22:33N 46°46' W 092°06'0 0.0
2016-Jun-25 21:33N 46°46' W 092°06'0 0.0
2016-Jun-25 20:33N 46°46' W 092°06'0 0.4
2016-Jun-25 19:33N 46°46' W 092°06'2 2.2
2016-Jun-25 18:33N 46°44' W 092°04'0 0.1
2016-Jun-25 17:33N 46°44' W 092°05'0 0.0
2016-Jun-25 16:33N 46°44' W 092°05'0 0.0
2016-Jun-25 15:33N 46°44' W 092°05'0 0.0
2016-Jun-25 14:33N 46°44' W 092°05'0 0.0
2016-Jun-25 13:33N 46°44' W 092°05'0 0.0
2016-Jun-25 12:33N 46°44' W 092°05'0 0.2
2016-Jun-25 11:33N 46°44' W 092°05'1 1.4
2016-Jun-25 10:33N 46°45' W 092°06'0 0.0
2016-Jun-25 09:33N 46°45' W 092°06'0 0.2
2016-Jun-25 08:33N 46°46' W 092°06'0 0.0
2016-Jun-25 07:33N 46°46' W 092°06'1 0.6
2016-Jun-25 06:33N 46°46' W 092°06'7 6.8
2016-Jun-25 05:33N 46°49' W 091°57'  
Track history (hours):
 
Tides and Currents Weather Stations Pressure Air Temp Water Temp Dewpoint Dewpoint Depression Visibility Wind Speed Wind Dir Waves Ship Positions

Ken Boothe Sr

Owner: AMERICAN STEAMSHIP COMPANY, WILLIAMSVILLE, NY. More information available from US FCC via Universal Licensing System and Coast Guard Vessel Documentation Center.

Last reported at 2016-Jul-05 03:34 UTC. Time now 2016-Jul-23 13:12 UTC.
Position N 46°47' W 091°49'.
Warning: this ship's position is 18 days out of date.

Length 30 m; draft 8.6 m.

Type: Towing. MMSI: 367525230.

Date/timePositionNaut miles runAvg speedWind from/ knotsBaromVisibWave heightAir tempDewpointWater temp
2016-Jul-05 03:34N 46°47' W 091°49'10 9.9
2016-Jul-05 02:33N 46°42' W 092°02'3 2.5
2016-Jul-05 01:34N 46°44' W 092°05'0 0.0
2016-Jul-05 00:33N 46°44' W 092°05'0 0.0
2016-Jul-04 23:33N 46°44' W 092°05'0 0.0
2016-Jul-04 22:33N 46°44' W 092°05'0 0.0
2016-Jul-04 21:33N 46°44' W 092°05'0 0.0
2016-Jul-04 20:33N 46°44' W 092°05'0 0.0
2016-Jul-04 19:33N 46°44' W 092°05'0 0.0
2016-Jul-04 18:33N 46°44' W 092°05'1 0.6
2016-Jul-04 17:33N 46°45' W 092°05'5 4.9
2016-Jul-04 16:34N 46°48' W 092°01'1110.6
2016-Jul-04 15:34N 46°52' W 091°46'4310.5
2016-Jul-04 11:28N 47°08' W 090°47'910.5
2016-Jul-04 10:33N 47°11' W 090°34'1410.5
2016-Jul-04 09:15N 47°13' W 090°14'710.6
2016-Jul-04 08:33N 47°15' W 090°04'  
2016-Jun-26 09:33N 47°22' W 089°46'1110.9
2016-Jun-26 08:31N 47°19' W 090°02'1210.7
2016-Jun-26 07:23N 47°17' W 090°20'6310.7
2016-Jun-26 01:33N 46°54' W 091°45'1110.7
2016-Jun-26 00:33N 46°49' W 091°59'6 5.9
2016-Jun-25 23:33N 46°46' W 092°06'0 0.2
2016-Jun-25 22:33N 46°46' W 092°06'0 0.0
2016-Jun-25 21:33N 46°46' W 092°06'0 0.0
2016-Jun-25 20:33N 46°46' W 092°06'0 0.4
2016-Jun-25 19:33N 46°46' W 092°06'2 2.2
2016-Jun-25 18:33N 46°44' W 092°04'0 0.1
2016-Jun-25 17:33N 46°44' W 092°05'0 0.0
2016-Jun-25 16:33N 46°44' W 092°05'0 0.0
2016-Jun-25 15:33N 46°44' W 092°05'0 0.0
2016-Jun-25 14:33N 46°44' W 092°05'0 0.0
2016-Jun-25 13:33N 46°44' W 092°05'0 0.0
2016-Jun-25 12:33N 46°44' W 092°05'0 0.2
2016-Jun-25 11:33N 46°44' W 092°05'1 1.4
2016-Jun-25 10:33N 46°45' W 092°06'0 0.0
2016-Jun-25 09:33N 46°45' W 092°06'0 0.2
2016-Jun-25 08:33N 46°46' W 092°06'0 0.0
2016-Jun-25 07:33N 46°46' W 092°06'1 0.6
2016-Jun-25 06:33N 46°46' W 092°06'7 6.8
2016-Jun-25 05:33N 46°49' W 091°57'  

Dump ship's entire track history